sensor_id;sensor_type;location;lat;lon;timestamp;P1;P2;P0
50866;PMS7003;36839;51.946;21.002;2023-04-07T00:00:03;27.50;24.00;18.00
50866;PMS7003;36839;51.946;21.002;2023-04-07T00:02:54;35.50;30.00;19.50
50866;PMS7003;36839;51.946;21.002;2023-04-07T00:05:21;36.00;30.00;22.00
50866;PMS7003;36839;51.946;21.002;2023-04-07T00:07:51;40.00;35.00;22.00
50866;PMS7003;36839;51.946;21.002;2023-04-07T00:10:18;37.00;35.00;23.00
50866;PMS7003;36839;51.946;21.002;2023-04-07T00:12:45;39.00;32.00;21.00
50866;PMS7003;36839;51.946;21.002;2023-04-07T00:15:11;39.00;29.00;19.00
50866;PMS7003;36839;51.946;21.002;2023-04-07T00:17:38;27.00;22.00;20.00
50866;PMS7003;36839;51.946;21.002;2023-04-07T00:20:19;42.50;33.00;17.50
50866;PMS7003;36839;51.946;21.002;2023-04-07T00:22:47;46.33;36.33;22.33
50866;PMS7003;36839;51.946;21.002;2023-04-07T00:25:14;37.00;28.00;17.00
50866;PMS7003;36839;51.946;21.002;2023-04-07T00:27:41;39.00;33.50;21.00
50866;PMS7003;36839;51.946;21.002;2023-04-07T00:33:03;28.00;28.00;20.00
50866;PMS7003;36839;51.946;21.002;2023-04-07T00:35:29;39.00;34.00;20.00
50866;PMS7003;36839;51.946;21.002;2023-04-07T00:37:57;38.00;31.00;21.00
50866;PMS7003;36839;51.946;21.002;2023-04-07T00:40:32;51.00;37.00;22.00
50866;PMS7003;36839;51.946;21.002;2023-04-07T00:43:00;44.00;36.00;22.00
50866;PMS7003;36839;51.946;21.002;2023-04-07T00:45:26;38.00;36.00;22.00
50866;PMS7003;36839;51.946;21.002;2023-04-07T00:47:53;54.50;38.00;24.50
50866;PMS7003;36839;51.946;21.002;2023-04-07T00:50:23;45.00;37.50;22.00
50866;PMS7003;36839;51.946;21.002;2023-04-07T00:52:59;54.50;37.00;22.00
50866;PMS7003;36839;51.946;21.002;2023-04-07T00:55:28;47.00;35.00;23.50
50866;PMS7003;36839;51.946;21.002;2023-04-07T00:57:54;54.00;37.00;23.00
50866;PMS7003;36839;51.946;21.002;2023-04-07T01:00:21;49.50;36.00;22.00
50866;PMS7003;36839;51.946;21.002;2023-04-07T01:02:54;47.00;39.00;24.00
50866;PMS7003;36839;51.946;21.002;2023-04-07T01:11:00;40.00;33.00;23.00
50866;PMS7003;36839;51.946;21.002;2023-04-07T01:13:50;33.00;32.50;21.00
50866;PMS7003;36839;51.946;21.002;2023-04-07T01:16:23;51.00;38.00;23.00
50866;PMS7003;36839;51.946;21.002;2023-04-07T01:21:28;46.00;37.00;23.00
50866;PMS7003;36839;51.946;21.002;2023-04-07T01:26:48;35.00;33.00;22.00
50866;PMS7003;36839;51.946;21.002;2023-04-07T01:31:57;37.00;32.00;21.50
50866;PMS7003;36839;51.946;21.002;2023-04-07T01:34:37;40.00;33.50;23.00
50866;PMS7003;36839;51.946;21.002;2023-04-07T01:37:06;37.00;33.00;19.00
50866;PMS7003;36839;51.946;21.002;2023-04-07T01:39:33;40.00;30.00;17.00
50866;PMS7003;36839;51.946;21.002;2023-04-07T01:42:03;38.00;32.00;20.50
50866;PMS7003;36839;51.946;21.002;2023-04-07T01:44:33;42.00;34.50;22.50
50866;PMS7003;36839;51.946;21.002;2023-04-07T01:47:00;48.00;33.50;19.00
50866;PMS7003;36839;51.946;21.002;2023-04-07T01:49:29;43.00;36.00;23.00
50866;PMS7003;36839;51.946;21.002;2023-04-07T01:52:00;40.00;35.00;23.00
50866;PMS7003;36839;51.946;21.002;2023-04-07T01:54:31;37.50;35.00;21.00
50866;PMS7003;36839;51.946;21.002;2023-04-07T01:57:00;42.00;34.50;20.50
50866;PMS7003;36839;51.946;21.002;2023-04-07T01:59:28;47.00;34.00;19.00
50866;PMS7003;36839;51.946;21.002;2023-04-07T02:01:57;44.67;35.33;22.67
50866;PMS7003;36839;51.946;21.002;2023-04-07T02:05:06;43.00;31.00;18.00
50866;PMS7003;36839;51.946;21.002;2023-04-07T02:07:26;40.00;33.00;23.00
50866;PMS7003;36839;51.946;21.002;2023-04-07T02:09:57;48.00;35.00;23.00
50866;PMS7003;36839;51.946;21.002;2023-04-07T02:12:28;38.00;32.00;19.00
50866;PMS7003;36839;51.946;21.002;2023-04-07T02:14:58;39.67;35.33;23.33
50866;PMS7003;36839;51.946;21.002;2023-04-07T02:17:26;48.00;35.00;23.00
50866;PMS7003;36839;51.946;21.002;2023-04-07T02:19:54;52.50;39.50;23.00
50866;PMS7003;36839;51.946;21.002;2023-04-07T02:22:23;48.00;35.00;21.00
50866;PMS7003;36839;51.946;21.002;2023-04-07T02:24:50;44.00;36.50;25.00
50866;PMS7003;36839;51.946;21.002;2023-04-07T02:27:16;52.00;40.00;24.00
50866;PMS7003;36839;51.946;21.002;2023-04-07T02:29:43;47.00;35.00;23.00
50866;PMS7003;36839;51.946;21.002;2023-04-07T02:32:10;47.00;31.00;17.00
50866;PMS7003;36839;51.946;21.002;2023-04-07T02:34:37;48.00;40.00;25.00
50866;PMS7003;36839;51.946;21.002;2023-04-07T02:37:03;49.50;40.00;24.00
50866;PMS7003;36839;51.946;21.002;2023-04-07T02:39:30;40.50;33.00;21.50
50866;PMS7003;36839;51.946;21.002;2023-04-07T02:41:57;35.50;34.00;21.50
50866;PMS7003;36839;51.946;21.002;2023-04-07T02:44:24;48.00;38.00;23.00
50866;PMS7003;36839;51.946;21.002;2023-04-07T02:46:51;35.00;31.00;20.00
50866;PMS7003;36839;51.946;21.002;2023-04-07T02:49:17;25.00;15.00;3.00
50866;PMS7003;36839;51.946;21.002;2023-04-07T02:51:48;48.00;37.00;23.00
50866;PMS7003;36839;51.946;21.002;2023-04-07T02:54:15;47.00;35.00;22.00
50866;PMS7003;36839;51.946;21.002;2023-04-07T02:56:42;33.00;25.00;10.00
50866;PMS7003;36839;51.946;21.002;2023-04-07T02:59:10;48.00;38.00;23.00
50866;PMS7003;36839;51.946;21.002;2023-04-07T03:01:37;41.00;35.00;21.50
50866;PMS7003;36839;51.946;21.002;2023-04-07T03:04:14;49.50;35.00;23.00
50866;PMS7003;36839;51.946;21.002;2023-04-07T03:06:41;50.50;38.50;23.50
50866;PMS7003;36839;51.946;21.002;2023-04-07T03:09:08;44.00;36.00;23.00
50866;PMS7003;36839;51.946;21.002;2023-04-07T03:11:34;44.00;38.50;24.00
50866;PMS7003;36839;51.946;21.002;2023-04-07T03:14:01;42.00;38.00;23.00
50866;PMS7003;36839;51.946;21.002;2023-04-07T03:16:29;53.00;39.00;24.50
50866;PMS7003;36839;51.946;21.002;2023-04-07T03:18:56;41.50;34.50;20.00
50866;PMS7003;36839;51.946;21.002;2023-04-07T03:21:26;45.50;38.50;23.00
50866;PMS7003;36839;51.946;21.002;2023-04-07T03:23:54;49.50;36.50;23.00
50866;PMS7003;36839;51.946;21.002;2023-04-07T03:26:21;42.00;36.00;24.00
50866;PMS7003;36839;51.946;21.002;2023-04-07T03:28:47;43.00;35.00;21.50
50866;PMS7003;36839;51.946;21.002;2023-04-07T03:31:14;45.00;37.00;24.00
50866;PMS7003;36839;51.946;21.002;2023-04-07T03:33:41;53.00;38.00;24.00
50866;PMS7003;36839;51.946;21.002;2023-04-07T03:36:08;53.00;39.00;24.00
50866;PMS7003;36839;51.946;21.002;2023-04-07T03:38:35;42.50;32.50;20.00
50866;PMS7003;36839;51.946;21.002;2023-04-07T03:41:01;54.00;40.00;24.00
50866;PMS7003;36839;51.946;21.002;2023-04-07T03:45:54;41.50;37.00;23.00
50866;PMS7003;36839;51.946;21.002;2023-04-07T03:48:22;52.00;34.00;23.00
50866;PMS7003;36839;51.946;21.002;2023-04-07T03:50:48;46.00;36.00;23.00
50866;PMS7003;36839;51.946;21.002;2023-04-07T03:53:15;49.00;38.00;23.00
50866;PMS7003;36839;51.946;21.002;2023-04-07T03:55:42;48.00;38.00;23.00
50866;PMS7003;36839;51.946;21.002;2023-04-07T03:58:10;53.00;40.00;24.00
50866;PMS7003;36839;51.946;21.002;2023-04-07T04:00:39;52.00;39.00;23.00
50866;PMS7003;36839;51.946;21.002;2023-04-07T04:03:12;46.00;35.00;24.00
50866;PMS7003;36839;51.946;21.002;2023-04-07T04:05:39;47.00;37.00;25.00
50866;PMS7003;36839;51.946;21.002;2023-04-07T04:08:06;54.00;43.50;26.00
50866;PMS7003;36839;51.946;21.002;2023-04-07T04:10:33;57.00;42.00;25.00
50866;PMS7003;36839;51.946;21.002;2023-04-07T04:12:59;57.00;41.00;26.00
50866;PMS7003;36839;51.946;21.002;2023-04-07T04:15:32;59.00;41.00;26.00
50866;PMS7003;36839;51.946;21.002;2023-04-07T04:18:00;63.50;44.50;26.50
50866;PMS7003;36839;51.946;21.002;2023-04-07T04:20:27;53.50;39.50;26.00
50866;PMS7003;36839;51.946;21.002;2023-04-07T04:22:53;50.00;36.67;24.00
50866;PMS7003;36839;51.946;21.002;2023-04-07T04:25:20;57.50;42.00;25.50
50866;PMS7003;36839;51.946;21.002;2023-04-07T04:27:46;54.00;40.00;24.00
50866;PMS7003;36839;51.946;21.002;2023-04-07T04:30:16;56.00;44.00;26.00
50866;PMS7003;36839;51.946;21.002;2023-04-07T04:32:42;61.00;39.00;25.00
50866;PMS7003;36839;51.946;21.002;2023-04-07T04:35:09;51.00;38.50;23.00
50866;PMS7003;36839;51.946;21.002;2023-04-07T04:37:37;55.00;43.00;25.50
50866;PMS7003;36839;51.946;21.002;2023-04-07T04:40:03;48.00;40.00;24.00
50866;PMS7003;36839;51.946;21.002;2023-04-07T04:42:34;58.00;42.00;26.00
50866;PMS7003;36839;51.946;21.002;2023-04-07T04:47:36;59.50;43.50;27.00
50866;PMS7003;36839;51.946;21.002;2023-04-07T04:50:07;59.00;41.00;21.00
50866;PMS7003;36839;51.946;21.002;2023-04-07T04:55:00;53.00;41.00;24.00
50866;PMS7003;36839;51.946;21.002;2023-04-07T05:00:01;48.50;34.50;23.00
50866;PMS7003;36839;51.946;21.002;2023-04-07T05:02:30;58.00;45.00;26.00
50866;PMS7003;36839;51.946;21.002;2023-04-07T05:05:01;56.00;42.00;25.00
50866;PMS7003;36839;51.946;21.002;2023-04-07T05:07:31;56.00;40.00;23.00
50866;PMS7003;36839;51.946;21.002;2023-04-07T05:09:57;57.00;40.50;26.00
50866;PMS7003;36839;51.946;21.002;2023-04-07T05:12:26;57.00;42.00;25.00
50866;PMS7003;36839;51.946;21.002;2023-04-07T05:14:52;56.50;42.00;27.50
50866;PMS7003;36839;51.946;21.002;2023-04-07T05:17:18;54.50;43.00;26.00
50866;PMS7003;36839;51.946;21.002;2023-04-07T05:19:45;60.50;47.00;26.50
50866;PMS7003;36839;51.946;21.002;2023-04-07T05:22:13;54.67;42.00;26.67
50866;PMS7003;36839;51.946;21.002;2023-04-07T05:24:42;61.00;46.00;26.00
50866;PMS7003;36839;51.946;21.002;2023-04-07T05:27:09;56.00;40.50;25.00
50866;PMS7003;36839;51.946;21.002;2023-04-07T05:29:37;57.00;41.00;26.00
50866;PMS7003;36839;51.946;21.002;2023-04-07T05:32:04;56.50;40.50;26.50
50866;PMS7003;36839;51.946;21.002;2023-04-07T05:34:35;59.00;44.00;25.00
50866;PMS7003;36839;51.946;21.002;2023-04-07T05:37:02;54.00;40.00;24.00
50866;PMS7003;36839;51.946;21.002;2023-04-07T05:39:30;54.50;44.00;26.50
50866;PMS7003;36839;51.946;21.002;2023-04-07T05:41:56;55.00;39.00;25.00
50866;PMS7003;36839;51.946;21.002;2023-04-07T05:44:25;36.50;28.50;14.50
50866;PMS7003;36839;51.946;21.002;2023-04-07T05:46:55;52.00;42.00;25.00
50866;PMS7003;36839;51.946;21.002;2023-04-07T05:49:21;53.00;43.00;26.00
50866;PMS7003;36839;51.946;21.002;2023-04-07T05:54:15;54.50;42.50;25.50
50866;PMS7003;36839;51.946;21.002;2023-04-07T05:56:44;50.00;30.00;12.00
50866;PMS7003;36839;51.946;21.002;2023-04-07T05:59:10;43.50;37.00;23.00
50866;PMS7003;36839;51.946;21.002;2023-04-07T06:01:38;55.00;41.00;26.00
50866;PMS7003;36839;51.946;21.002;2023-04-07T06:06:31;56.00;40.50;26.50
50866;PMS7003;36839;51.946;21.002;2023-04-07T06:08:59;58.00;44.00;26.00
50866;PMS7003;36839;51.946;21.002;2023-04-07T06:11:25;52.50;43.00;26.50
50866;PMS7003;36839;51.946;21.002;2023-04-07T06:13:55;52.00;37.50;22.50
50866;PMS7003;36839;51.946;21.002;2023-04-07T06:16:23;63.00;46.00;27.00
50866;PMS7003;36839;51.946;21.002;2023-04-07T06:18:51;62.00;45.00;28.00
50866;PMS7003;36839;51.946;21.002;2023-04-07T06:21:19;61.67;42.67;26.00
50866;PMS7003;36839;51.946;21.002;2023-04-07T06:23:46;60.00;44.50;25.00
50866;PMS7003;36839;51.946;21.002;2023-04-07T06:26:13;52.00;39.50;26.50
50866;PMS7003;36839;51.946;21.002;2023-04-07T06:28:41;55.50;41.50;22.50
50866;PMS7003;36839;51.946;21.002;2023-04-07T06:31:08;55.00;43.50;27.50
50866;PMS7003;36839;51.946;21.002;2023-04-07T06:33:36;56.50;42.00;25.50
50866;PMS7003;36839;51.946;21.002;2023-04-07T06:36:04;51.00;37.00;25.00
50866;PMS7003;36839;51.946;21.002;2023-04-07T06:38:30;56.00;40.00;27.00
50866;PMS7003;36839;51.946;21.002;2023-04-07T06:40:57;58.00;42.00;26.00
50866;PMS7003;36839;51.946;21.002;2023-04-07T06:43:24;53.00;42.00;28.00
50866;PMS7003;36839;51.946;21.002;2023-04-07T06:45:50;56.00;43.00;26.00
50866;PMS7003;36839;51.946;21.002;2023-04-07T06:48:17;62.00;47.50;30.00
50866;PMS7003;36839;51.946;21.002;2023-04-07T06:50:50;54.00;41.00;25.00
50866;PMS7003;36839;51.946;21.002;2023-04-07T06:53:19;59.00;45.00;28.00
50866;PMS7003;36839;51.946;21.002;2023-04-07T06:55:47;51.00;39.00;23.00
50866;PMS7003;36839;51.946;21.002;2023-04-07T06:58:15;56.00;40.00;26.00
50866;PMS7003;36839;51.946;21.002;2023-04-07T07:00:41;56.50;46.00;28.50
50866;PMS7003;36839;51.946;21.002;2023-04-07T07:03:08;57.00;45.00;28.50
50866;PMS7003;36839;51.946;21.002;2023-04-07T07:05:35;55.00;43.00;26.00
50866;PMS7003;36839;51.946;21.002;2023-04-07T07:08:02;50.00;39.00;25.00
50866;PMS7003;36839;51.946;21.002;2023-04-07T07:10:30;61.00;44.00;28.00
50866;PMS7003;36839;51.946;21.002;2023-04-07T07:12:56;53.50;38.50;24.00
50866;PMS7003;36839;51.946;21.002;2023-04-07T07:15:23;55.00;44.00;27.00
50866;PMS7003;36839;51.946;21.002;2023-04-07T07:17:55;53.00;41.00;28.00
50866;PMS7003;36839;51.946;21.002;2023-04-07T07:20:23;61.00;46.00;27.00
50866;PMS7003;36839;51.946;21.002;2023-04-07T07:22:52;51.00;42.00;28.00
50866;PMS7003;36839;51.946;21.002;2023-04-07T07:25:21;54.50;45.50;30.50
50866;PMS7003;36839;51.946;21.002;2023-04-07T07:27:49;68.00;47.00;28.00
50866;PMS7003;36839;51.946;21.002;2023-04-07T07:30:19;59.50;46.00;28.50
50866;PMS7003;36839;51.946;21.002;2023-04-07T07:32:46;59.00;45.00;26.00
50866;PMS7003;36839;51.946;21.002;2023-04-07T07:35:14;59.00;45.00;30.00
50866;PMS7003;36839;51.946;21.002;2023-04-07T07:40:16;60.00;47.00;30.00
50866;PMS7003;36839;51.946;21.002;2023-04-07T07:42:46;55.00;45.00;29.00
50866;PMS7003;36839;51.946;21.002;2023-04-07T07:45:14;54.50;41.50;27.00
50866;PMS7003;36839;51.946;21.002;2023-04-07T07:47:42;57.00;43.50;26.00
50866;PMS7003;36839;51.946;21.002;2023-04-07T07:50:09;58.50;45.50;28.00
50866;PMS7003;36839;51.946;21.002;2023-04-07T07:52:43;56.00;43.00;25.00
50866;PMS7003;36839;51.946;21.002;2023-04-07T07:55:11;51.50;42.50;26.00
50866;PMS7003;36839;51.946;21.002;2023-04-07T07:57:40;51.00;39.00;28.00
50866;PMS7003;36839;51.946;21.002;2023-04-07T08:00:10;57.00;44.00;28.00
50866;PMS7003;36839;51.946;21.002;2023-04-07T08:02:37;54.50;41.50;24.50
50866;PMS7003;36839;51.946;21.002;2023-04-07T08:05:09;57.00;42.00;26.50
50866;PMS7003;36839;51.946;21.002;2023-04-07T08:07:40;57.50;46.50;30.00
50866;PMS7003;36839;51.946;21.002;2023-04-07T08:10:08;62.00;46.00;28.00
50866;PMS7003;36839;51.946;21.002;2023-04-07T08:12:35;56.00;43.00;28.00
50866;PMS7003;36839;51.946;21.002;2023-04-07T08:15:03;57.00;44.00;29.00
50866;PMS7003;36839;51.946;21.002;2023-04-07T08:17:35;56.00;44.00;30.00
50866;PMS7003;36839;51.946;21.002;2023-04-07T08:20:02;59.50;45.00;29.00
50866;PMS7003;36839;51.946;21.002;2023-04-07T08:22:32;62.00;45.00;29.00
50866;PMS7003;36839;51.946;21.002;2023-04-07T08:24:59;60.33;47.00;30.33
50866;PMS7003;36839;51.946;21.002;2023-04-07T08:27:25;65.00;46.00;27.00
50866;PMS7003;36839;51.946;21.002;2023-04-07T08:29:57;56.50;44.50;28.50
50866;PMS7003;36839;51.946;21.002;2023-04-07T08:32:32;58.00;45.50;30.00
50866;PMS7003;36839;51.946;21.002;2023-04-07T08:35:08;62.00;47.00;29.00
50866;PMS7003;36839;51.946;21.002;2023-04-07T08:37:38;65.00;48.00;30.00
50866;PMS7003;36839;51.946;21.002;2023-04-07T08:40:06;56.50;43.50;29.00
50866;PMS7003;36839;51.946;21.002;2023-04-07T08:42:33;61.00;47.00;29.00
50866;PMS7003;36839;51.946;21.002;2023-04-07T08:45:04;62.50;47.50;29.50
50866;PMS7003;36839;51.946;21.002;2023-04-07T08:47:32;55.00;43.50;28.50
50866;PMS7003;36839;51.946;21.002;2023-04-07T08:50:01;60.00;43.00;29.00
50866;PMS7003;36839;51.946;21.002;2023-04-07T08:55:13;65.00;50.50;31.50
50866;PMS7003;36839;51.946;21.002;2023-04-07T08:57:40;59.00;45.00;29.00
50866;PMS7003;36839;51.946;21.002;2023-04-07T09:00:08;62.00;47.50;30.00
50866;PMS7003;36839;51.946;21.002;2023-04-07T09:02:42;59.00;47.00;29.00
50866;PMS7003;36839;51.946;21.002;2023-04-07T09:05:12;64.00;48.00;31.50
50866;PMS7003;36839;51.946;21.002;2023-04-07T09:07:41;62.50;47.50;30.00
50866;PMS7003;36839;51.946;21.002;2023-04-07T09:10:08;57.50;45.00;29.50
50866;PMS7003;36839;51.946;21.002;2023-04-07T09:12:35;59.50;47.00;30.00
50866;PMS7003;36839;51.946;21.002;2023-04-07T09:15:02;55.50;43.50;29.50
50866;PMS7003;36839;51.946;21.002;2023-04-07T09:17:34;61.50;47.00;29.50
50866;PMS7003;36839;51.946;21.002;2023-04-07T09:20:02;56.00;44.00;28.00
50866;PMS7003;36839;51.946;21.002;2023-04-07T09:25:16;54.00;42.00;27.00
50866;PMS7003;36839;51.946;21.002;2023-04-07T09:27:53;58.00;46.00;28.00
50866;PMS7003;36839;51.946;21.002;2023-04-07T09:30:24;56.00;45.00;29.00
50866;PMS7003;36839;51.946;21.002;2023-04-07T09:32:52;51.67;43.33;29.67
50866;PMS7003;36839;51.946;21.002;2023-04-07T09:38:08;49.00;40.00;26.00
50866;PMS7003;36839;51.946;21.002;2023-04-07T09:40:36;51.00;44.00;29.00
50866;PMS7003;36839;51.946;21.002;2023-04-07T09:43:04;58.00;43.00;29.00
50866;PMS7003;36839;51.946;21.002;2023-04-07T09:45:32;58.00;45.00;30.00
50866;PMS7003;36839;51.946;21.002;2023-04-07T09:48:05;52.00;43.00;29.00
50866;PMS7003;36839;51.946;21.002;2023-04-07T09:50:33;57.00;46.00;29.50
50866;PMS7003;36839;51.946;21.002;2023-04-07T09:53:01;59.50;46.00;30.00
50866;PMS7003;36839;51.946;21.002;2023-04-07T09:55:31;51.00;42.00;28.00
50866;PMS7003;36839;51.946;21.002;2023-04-07T09:57:59;53.00;41.00;27.00
50866;PMS7003;36839;51.946;21.002;2023-04-07T10:00:28;50.00;42.00;28.00
50866;PMS7003;36839;51.946;21.002;2023-04-07T10:02:55;56.00;43.00;29.00
50866;PMS7003;36839;51.946;21.002;2023-04-07T10:05:22;59.00;45.50;29.00
50866;PMS7003;36839;51.946;21.002;2023-04-07T10:07:52;53.00;44.00;30.00
50866;PMS7003;36839;51.946;21.002;2023-04-07T10:10:19;56.50;43.00;28.50
50866;PMS7003;36839;51.946;21.002;2023-04-07T10:12:46;52.33;41.33;28.33
50866;PMS7003;36839;51.946;21.002;2023-04-07T10:15:18;55.00;44.50;28.00
50866;PMS7003;36839;51.946;21.002;2023-04-07T10:17:47;55.00;45.00;29.00
50866;PMS7003;36839;51.946;21.002;2023-04-07T10:20:18;55.00;43.00;28.00
50866;PMS7003;36839;51.946;21.002;2023-04-07T10:22:48;52.00;42.00;28.50
50866;PMS7003;36839;51.946;21.002;2023-04-07T10:25:19;54.00;43.00;28.50
50866;PMS7003;36839;51.946;21.002;2023-04-07T10:27:53;51.50;42.50;29.00
50866;PMS7003;36839;51.946;21.002;2023-04-07T10:30:27;52.00;42.00;28.00
50866;PMS7003;36839;51.946;21.002;2023-04-07T10:33:01;55.00;42.00;29.00
50866;PMS7003;36839;51.946;21.002;2023-04-07T10:38:36;54.00;44.00;29.00
50866;PMS7003;36839;51.946;21.002;2023-04-07T10:41:37;60.00;44.00;28.00
50866;PMS7003;36839;51.946;21.002;2023-04-07T10:44:58;54.00;43.00;28.00
50866;PMS7003;36839;51.946;21.002;2023-04-07T10:47:05;51.00;39.00;25.00
50866;PMS7003;36839;51.946;21.002;2023-04-07T10:49:33;52.00;42.00;28.00
50866;PMS7003;36839;51.946;21.002;2023-04-07T10:52:23;55.00;42.50;29.00
50866;PMS7003;36839;51.946;21.002;2023-04-07T10:55:26;54.00;41.00;29.00
50866;PMS7003;36839;51.946;21.002;2023-04-07T10:58:17;48.00;39.00;26.00
50866;PMS7003;36839;51.946;21.002;2023-04-07T11:03:29;52.50;42.50;27.50
50866;PMS7003;36839;51.946;21.002;2023-04-07T11:06:12;51.00;40.00;28.50
50866;PMS7003;36839;51.946;21.002;2023-04-07T11:08:41;54.00;41.00;26.50
50866;PMS7003;36839;51.946;21.002;2023-04-07T11:11:10;51.00;40.00;27.00
50866;PMS7003;36839;51.946;21.002;2023-04-07T11:13:39;54.00;42.67;28.00
50866;PMS7003;36839;51.946;21.002;2023-04-07T11:16:34;54.00;43.50;28.50
50866;PMS7003;36839;51.946;21.002;2023-04-07T11:19:05;50.00;40.00;24.50
50866;PMS7003;36839;51.946;21.002;2023-04-07T11:21:47;54.50;43.50;29.00
50866;PMS7003;36839;51.946;21.002;2023-04-07T11:24:32;55.50;43.00;28.50
50866;PMS7003;36839;51.946;21.002;2023-04-07T11:27:14;58.00;44.00;29.00
50866;PMS7003;36839;51.946;21.002;2023-04-07T11:29:41;54.50;43.00;28.50
50866;PMS7003;36839;51.946;21.002;2023-04-07T11:32:10;56.00;45.00;29.00
50866;PMS7003;36839;51.946;21.002;2023-04-07T11:34:39;48.00;40.00;26.00
50866;PMS7003;36839;51.946;21.002;2023-04-07T11:37:22;50.00;40.50;27.50
50866;PMS7003;36839;51.946;21.002;2023-04-07T11:39:54;52.00;41.50;28.50
50866;PMS7003;36839;51.946;21.002;2023-04-07T11:42:36;54.00;43.00;29.00
50866;PMS7003;36839;51.946;21.002;2023-04-07T11:45:35;51.00;41.00;28.00
50866;PMS7003;36839;51.946;21.002;2023-04-07T11:48:24;53.00;40.00;27.50
50866;PMS7003;36839;51.946;21.002;2023-04-07T11:50:55;50.00;41.50;28.00
50866;PMS7003;36839;51.946;21.002;2023-04-07T11:53:28;51.00;42.00;28.00
50866;PMS7003;36839;51.946;21.002;2023-04-07T11:58:35;50.50;40.00;26.50
50866;PMS7003;36839;51.946;21.002;2023-04-07T12:01:06;46.00;36.00;24.00
50866;PMS7003;36839;51.946;21.002;2023-04-07T12:06:32;46.00;37.00;24.00
50866;PMS7003;36839;51.946;21.002;2023-04-07T12:09:29;50.00;39.00;26.00
50866;PMS7003;36839;51.946;21.002;2023-04-07T12:12:01;43.00;37.00;26.00
50866;PMS7003;36839;51.946;21.002;2023-04-07T12:14:33;48.50;41.00;26.50
50866;PMS7003;36839;51.946;21.002;2023-04-07T12:17:02;39.00;34.00;23.00
50866;PMS7003;36839;51.946;21.002;2023-04-07T12:19:36;26.00;25.00;19.00
50866;PMS7003;36839;51.946;21.002;2023-04-07T12:22:06;10.00;9.00;8.00
50866;PMS7003;36839;51.946;21.002;2023-04-07T12:24:35;11.00;8.00;7.00
50866;PMS7003;36839;51.946;21.002;2023-04-07T12:27:06;11.00;11.00;9.00
50866;PMS7003;36839;51.946;21.002;2023-04-07T12:29:36;9.00;7.50;5.50
50866;PMS7003;36839;51.946;21.002;2023-04-07T12:32:03;7.00;6.00;5.00
50866;PMS7003;36839;51.946;21.002;2023-04-07T12:34:30;7.00;4.50;4.00
50866;PMS7003;36839;51.946;21.002;2023-04-07T12:36:57;7.00;7.00;6.00
50866;PMS7003;36839;51.946;21.002;2023-04-07T12:39:24;7.00;7.00;5.00
50866;PMS7003;36839;51.946;21.002;2023-04-07T12:41:50;7.00;7.00;5.00
50866;PMS7003;36839;51.946;21.002;2023-04-07T12:44:18;7.00;7.00;5.00
50866;PMS7003;36839;51.946;21.002;2023-04-07T12:46:46;11.50;7.00;5.00
50866;PMS7003;36839;51.946;21.002;2023-04-07T12:49:14;9.50;8.00;6.00
50866;PMS7003;36839;51.946;21.002;2023-04-07T12:51:42;9.00;7.00;5.00
50866;PMS7003;36839;51.946;21.002;2023-04-07T12:54:09;8.50;8.50;6.50
50866;PMS7003;36839;51.946;21.002;2023-04-07T12:56:36;9.00;7.00;7.00
50866;PMS7003;36839;51.946;21.002;2023-04-07T12:59:09;10.00;9.00;7.00
50866;PMS7003;36839;51.946;21.002;2023-04-07T13:01:36;15.00;11.00;7.00
50866;PMS7003;36839;51.946;21.002;2023-04-07T13:04:04;8.00;8.00;6.50
50866;PMS7003;36839;51.946;21.002;2023-04-07T13:06:31;8.00;8.00;7.00
50866;PMS7003;36839;51.946;21.002;2023-04-07T13:09:01;11.50;9.00;7.00
50866;PMS7003;36839;51.946;21.002;2023-04-07T13:11:28;11.00;11.00;8.00
50866;PMS7003;36839;51.946;21.002;2023-04-07T13:13:55;10.00;10.00;7.00
50866;PMS7003;36839;51.946;21.002;2023-04-07T13:16:22;10.00;10.00;7.00
50866;PMS7003;36839;51.946;21.002;2023-04-07T13:18:52;10.00;10.00;7.00
50866;PMS7003;36839;51.946;21.002;2023-04-07T13:21:18;12.00;10.00;8.00
50866;PMS7003;36839;51.946;21.002;2023-04-07T13:23:46;11.00;10.00;8.00
50866;PMS7003;36839;51.946;21.002;2023-04-07T13:26:15;10.00;10.00;8.00
50866;PMS7003;36839;51.946;21.002;2023-04-07T13:28:42;9.00;9.00;7.00
50866;PMS7003;36839;51.946;21.002;2023-04-07T13:31:13;9.00;9.00;6.00
50866;PMS7003;36839;51.946;21.002;2023-04-07T13:33:44;16.00;11.50;8.50
50866;PMS7003;36839;51.946;21.002;2023-04-07T13:36:13;11.50;10.50;9.00
50866;PMS7003;36839;51.946;21.002;2023-04-07T13:38:39;14.00;11.00;8.00
50866;PMS7003;36839;51.946;21.002;2023-04-07T13:41:07;11.00;11.00;8.00
50866;PMS7003;36839;51.946;21.002;2023-04-07T13:43:34;11.50;10.00;8.00
50866;PMS7003;36839;51.946;21.002;2023-04-07T13:46:01;11.00;11.00;8.00
50866;PMS7003;36839;51.946;21.002;2023-04-07T13:48:27;9.00;8.00;6.00
50866;PMS7003;36839;51.946;21.002;2023-04-07T13:50:54;13.33;11.00;7.67
50866;PMS7003;36839;51.946;21.002;2023-04-07T13:53:21;6.00;5.00;3.00
50866;PMS7003;36839;51.946;21.002;2023-04-07T13:55:48;6.00;5.00;4.50
50866;PMS7003;36839;51.946;21.002;2023-04-07T13:58:15;6.00;6.00;5.00
50866;PMS7003;36839;51.946;21.002;2023-04-07T14:00:44;8.50;7.00;5.50
50866;PMS7003;36839;51.946;21.002;2023-04-07T14:03:14;4.00;4.00;4.00
50866;PMS7003;36839;51.946;21.002;2023-04-07T14:05:41;6.00;5.00;4.00
50866;PMS7003;36839;51.946;21.002;2023-04-07T14:08:07;4.00;4.00;4.00
50866;PMS7003;36839;51.946;21.002;2023-04-07T14:10:34;1.00;1.00;1.00
50866;PMS7003;36839;51.946;21.002;2023-04-07T14:13:02;3.00;3.00;3.00
50866;PMS7003;36839;51.946;21.002;2023-04-07T14:15:29;5.00;3.00;3.00
50866;PMS7003;36839;51.946;21.002;2023-04-07T14:17:57;5.50;4.00;2.50
50866;PMS7003;36839;51.946;21.002;2023-04-07T14:20:26;4.00;4.00;3.00
50866;PMS7003;36839;51.946;21.002;2023-04-07T14:22:52;5.00;5.00;4.00
50866;PMS7003;36839;51.946;21.002;2023-04-07T14:25:21;5.00;5.00;3.00
50866;PMS7003;36839;51.946;21.002;2023-04-07T14:27:53;5.50;4.00;3.00
50866;PMS7003;36839;51.946;21.002;2023-04-07T14:33:00;7.00;4.00;3.00
50866;PMS7003;36839;51.946;21.002;2023-04-07T14:35:29;7.00;5.33;4.67
50866;PMS7003;36839;51.946;21.002;2023-04-07T14:37:56;5.50;5.50;3.50
50866;PMS7003;36839;51.946;21.002;2023-04-07T14:42:51;7.00;7.00;5.00
50866;PMS7003;36839;51.946;21.002;2023-04-07T14:45:18;7.00;6.00;5.00
50866;PMS7003;36839;51.946;21.002;2023-04-07T14:47:48;6.00;6.00;4.00
50866;PMS7003;36839;51.946;21.002;2023-04-07T14:50:16;8.50;6.50;5.50